Time;durP1;ratioP1;P1;durP2;ratioP2;P2;SDS_P1;SDS_P2;PMS_P1;PMS_P2;Temp;Humidity;BMP_temperature;BMP_pressure;BME280_temperature;BME280_humidity;BME280_pressure;Samples;Min_cycle;Max_cycle;Signal;HPM_P1;HPM_P2
2021/09/01 00:01:51;;;;;;;0.40;0.20;;;12.00;99.90;;;;;;5029964;28;20375;-74
2021/09/01 00:04:17;;;;;;;0.40;0.30;;;12.10;99.90;;;;;;5030181;28;20383;-74
2021/09/01 00:06:42;;;;;;;0.40;0.20;;;12.10;99.90;;;;;;5029335;28;20427;-74
2021/09/01 00:09:08;;;;;;;0.40;0.30;;;12.10;99.90;;;;;;5030795;28;20856;-75
2021/09/01 00:11:34;;;;;;;0.40;0.20;;;12.10;99.90;;;;;;5030067;28;20442;-75
2021/09/01 00:13:59;;;;;;;0.40;0.20;;;12.00;99.90;;;;;;5030581;28;20387;-75
2021/09/01 00:16:28;;;;;;;0.40;0.20;;;11.90;99.90;;;;;;5030328;28;20721;-75
2021/09/01 00:19:03;;;;;;;0.40;0.20;;;11.90;99.90;;;;;;5030598;28;20427;-76
2021/09/01 00:21:29;;;;;;;0.40;0.20;;;11.80;99.90;;;;;;5030288;28;20509;-75
2021/09/01 00:23:55;;;;;;;0.40;0.30;;;11.80;99.90;;;;;;5030850;28;20470;-75
2021/09/01 00:26:21;;;;;;;0.40;0.20;;;11.80;99.90;;;;;;5030550;28;20397;-75
2021/09/01 00:28:47;;;;;;;0.40;0.30;;;11.90;99.90;;;;;;5029694;28;20442;-75
2021/09/01 00:31:13;;;;;;;0.40;0.20;;;11.80;99.90;;;;;;5030463;28;20773;-75
2021/09/01 00:33:39;;;;;;;0.40;0.20;;;11.90;99.90;;;;;;5030030;28;20732;-75
2021/09/01 00:36:05;;;;;;;0.40;0.20;;;11.80;99.90;;;;;;5030554;28;20386;-75
2021/09/01 00:38:31;;;;;;;0.40;0.28;;;11.80;99.90;;;;;;5029707;28;20905;-75
2021/09/01 00:40:57;;;;;;;0.40;0.20;;;11.80;99.90;;;;;;5030744;28;20415;-76
2021/09/01 00:43:23;;;;;;;0.40;0.20;;;11.60;99.90;;;;;;5030292;28;20498;-76
2021/09/01 00:45:49;;;;;;;0.40;0.20;;;11.70;99.90;;;;;;5029713;28;20395;-76
2021/09/01 00:48:19;;;;;;;0.40;0.20;;;11.80;99.90;;;;;;5030403;28;20417;-75
2021/09/01 00:50:47;;;;;;;0.40;0.30;;;11.80;99.90;;;;;;5029717;28;20454;-75
2021/09/01 00:53:14;;;;;;;0.40;0.20;;;11.60;99.90;;;;;;5012340;28;20482;-75
2021/09/01 00:55:46;;;;;;;0.40;0.20;;;11.70;99.90;;;;;;5029697;28;20732;-76
2021/09/01 00:58:16;;;;;;;0.40;0.20;;;11.60;99.90;;;;;;5029891;28;20453;-76
2021/09/01 01:03:11;;;;;;;0.40;0.20;;;11.50;99.90;;;;;;5030180;28;20430;-75
2021/09/01 01:05:36;;;;;;;0.40;0.20;;;11.50;99.90;;;;;;5029229;28;20894;-75
2021/09/01 01:08:04;;;;;;;0.40;0.30;;;11.50;99.90;;;;;;5033027;28;20426;-75
2021/09/01 01:10:29;;;;;;;0.40;0.30;;;11.50;99.90;;;;;;5034102;28;20379;-75
2021/09/01 01:12:55;;;;;;;0.40;0.20;;;11.50;99.90;;;;;;5033278;28;20457;-75
2021/09/01 01:15:20;;;;;;;0.40;0.30;;;11.60;99.90;;;;;;5034041;28;20401;-75
2021/09/01 01:17:46;;;;;;;0.40;0.30;;;11.50;99.90;;;;;;5032319;28;20825;-75
2021/09/01 01:20:12;;;;;;;0.40;0.20;;;11.50;99.90;;;;;;5033553;28;20864;-75
2021/09/01 01:22:37;;;;;;;0.40;0.20;;;11.50;99.90;;;;;;5032325;28;20548;-75
2021/09/01 01:25:08;;;;;;;0.40;0.20;;;11.50;99.90;;;;;;5034079;28;20387;-76
2021/09/01 01:27:37;;;;;;;0.40;0.30;;;11.30;99.90;;;;;;5032808;28;20383;-75
2021/09/01 01:30:07;;;;;;;0.40;0.20;;;11.30;99.90;;;;;;5034117;28;20839;-75
2021/09/01 01:32:33;;;;;;;0.40;0.30;;;11.40;99.90;;;;;;5033414;28;20372;-74
2021/09/01 01:34:58;;;;;;;0.40;0.20;;;11.50;99.90;;;;;;5033756;28;20383;-75
2021/09/01 01:37:24;;;;;;;0.40;0.30;;;11.50;99.90;;;;;;5033791;28;20467;-75
2021/09/01 01:39:50;;;;;;;0.40;0.20;;;11.40;99.90;;;;;;5033246;28;20371;-75
2021/09/01 01:42:15;;;;;;;0.40;0.20;;;11.30;99.90;;;;;;5034045;28;20688;-75
2021/09/01 01:44:41;;;;;;;0.40;0.20;;;11.40;99.90;;;;;;5032779;28;20985;-74
2021/09/01 01:47:06;;;;;;;0.40;0.20;;;11.40;99.90;;;;;;5033755;28;20418;-74
2021/09/01 01:49:32;;;;;;;0.40;0.20;;;11.40;99.90;;;;;;5032954;28;20376;-74
2021/09/01 01:51:58;;;;;;;0.40;0.20;;;11.40;99.90;;;;;;5033672;28;20383;-74
2021/09/01 01:54:24;;;;;;;0.40;0.20;;;11.40;99.90;;;;;;5033608;28;20379;-74
2021/09/01 01:56:49;;;;;;;0.40;0.20;;;11.50;99.90;;;;;;5032868;28;20372;-75
2021/09/01 01:59:16;;;;;;;0.40;0.20;;;11.50;99.90;;;;;;5033360;28;20407;-74
2021/09/01 02:01:42;;;;;;;0.40;0.30;;;11.30;99.90;;;;;;5032647;28;20391;-75
2021/09/01 02:04:07;;;;;;;0.40;0.20;;;11.20;99.90;;;;;;5033530;28;20693;-74
2021/09/01 02:06:33;;;;;;;0.40;0.20;;;11.30;99.90;;;;;;5032803;28;20444;-73
2021/09/01 02:08:58;;;;;;;0.40;0.30;;;11.30;99.90;;;;;;5033114;28;20378;-74
2021/09/01 02:11:24;;;;;;;0.40;0.20;;;11.40;99.90;;;;;;5015032;28;20736;-74
2021/09/01 02:13:50;;;;;;;0.40;0.20;;;11.30;99.90;;;;;;5031792;28;20383;-73
2021/09/01 02:16:15;;;;;;;0.40;0.20;;;11.40;99.90;;;;;;5032688;28;20403;-74
2021/09/01 02:18:41;;;;;;;0.40;0.20;;;11.30;99.90;;;;;;5031537;28;20419;-74
2021/09/01 02:21:06;;;;;;;0.40;0.30;;;11.10;99.90;;;;;;5032701;28;20383;-74
2021/09/01 02:23:32;;;;;;;0.40;0.20;;;11.10;99.90;;;;;;5032329;28;20735;-74
2021/09/01 02:25:58;;;;;;;0.40;0.20;;;11.10;99.90;;;;;;5031810;28;20389;-74
2021/09/01 02:28:23;;;;;;;0.40;0.20;;;11.00;99.90;;;;;;5032545;28;20383;-74
2021/09/01 02:30:49;;;;;;;0.40;0.30;;;11.00;99.90;;;;;;5031667;28;20452;-74
2021/09/01 02:33:14;;;;;;;0.40;0.20;;;10.90;99.90;;;;;;5031931;28;20493;-74
2021/09/01 02:35:40;;;;;;;0.40;0.20;;;10.90;99.90;;;;;;5031362;28;20461;-74
2021/09/01 02:38:06;;;;;;;0.40;0.20;;;11.00;99.90;;;;;;5032322;28;20437;-74
2021/09/01 02:40:32;;;;;;;0.40;0.20;;;11.10;99.90;;;;;;5032241;28;20383;-74
2021/09/01 02:42:57;;;;;;;0.40;0.20;;;11.00;99.90;;;;;;5031389;28;20383;-74
2021/09/01 02:45:23;;;;;;;0.40;0.20;;;10.90;99.90;;;;;;5032538;28;20441;-74
2021/09/01 02:47:49;;;;;;;0.40;0.20;;;11.00;99.90;;;;;;5031350;28;20505;-74
2021/09/01 02:50:15;;;;;;;0.40;0.20;;;11.20;99.90;;;;;;5031924;28;20386;-74
2021/09/01 02:52:44;;;;;;;0.40;0.20;;;11.20;99.90;;;;;;5031437;28;20386;-74
2021/09/01 02:55:11;;;;;;;0.40;0.20;;;11.20;99.90;;;;;;5031988;28;20387;-74
2021/09/01 02:57:37;;;;;;;0.40;0.20;;;11.40;99.90;;;;;;5031365;28;20398;-74
2021/09/01 03:00:05;;;;;;;0.40;0.30;;;11.40;99.90;;;;;;5031891;28;20383;-74
2021/09/01 03:02:30;;;;;;;0.40;0.20;;;11.30;99.90;;;;;;5032089;28;20421;-74
2021/09/01 03:04:56;;;;;;;0.40;0.20;;;11.30;99.90;;;;;;5031029;28;20372;-74
2021/09/01 03:07:21;;;;;;;0.40;0.20;;;11.30;99.90;;;;;;5031772;28;20429;-74
2021/09/01 03:09:47;;;;;;;0.40;0.20;;;11.30;99.90;;;;;;5030450;28;20391;-74
2021/09/01 03:12:13;;;;;;;0.40;0.20;;;11.30;99.90;;;;;;5031766;28;20414;-74
2021/09/01 03:14:38;;;;;;;0.40;0.30;;;11.20;99.90;;;;;;5030839;28;20439;-74
2021/09/01 03:17:04;;;;;;;0.40;0.20;;;11.20;99.90;;;;;;5031352;28;20445;-75
2021/09/01 03:19:29;;;;;;;0.40;0.20;;;11.20;99.90;;;;;;5031395;28;20814;-74
2021/09/01 03:21:55;;;;;;;0.40;0.20;;;11.30;99.90;;;;;;5030577;28;20409;-74
2021/09/01 03:24:21;;;;;;;0.40;0.20;;;11.20;99.90;;;;;;5031511;28;20379;-75
2021/09/01 03:26:46;;;;;;;0.40;0.20;;;11.20;99.90;;;;;;5030774;28;20437;-75
2021/09/01 03:29:12;;;;;;;0.40;0.20;;;11.20;99.90;;;;;;5030676;28;20387;-74
2021/09/01 03:31:38;;;;;;;0.40;0.20;;;11.10;99.90;;;;;;5031249;28;20473;-74
2021/09/01 03:34:03;;;;;;;0.40;0.20;;;11.20;99.90;;;;;;5030858;28;20386;-74
2021/09/01 03:36:29;;;;;;;0.40;0.30;;;11.10;99.90;;;;;;5031589;28;20915;-74
2021/09/01 03:38:54;;;;;;;0.40;0.23;;;11.10;99.90;;;;;;5030468;28;20911;-76
2021/09/01 03:41:20;;;;;;;0.40;0.20;;;11.10;99.90;;;;;;5031303;28;20403;-74
2021/09/01 03:43:46;;;;;;;0.40;0.20;;;10.90;99.90;;;;;;5030528;28;20387;-75
2021/09/01 03:46:12;;;;;;;0.40;0.20;;;10.90;99.90;;;;;;5031135;28;20525;-74
2021/09/01 03:48:37;;;;;;;0.40;0.20;;;10.90;99.90;;;;;;5031117;28;20388;-75
2021/09/01 03:51:03;;;;;;;0.40;0.20;;;11.00;99.90;;;;;;5030193;28;20375;-75
2021/09/01 03:53:29;;;;;;;0.40;0.20;;;11.00;99.90;;;;;;5031403;28;20384;-75
2021/09/01 03:55:54;;;;;;;0.40;0.20;;;11.00;99.90;;;;;;5029935;28;20787;-74
2021/09/01 03:58:20;;;;;;;0.40;0.20;;;11.10;99.90;;;;;;5030319;28;20447;-75
2021/09/01 04:00:45;;;;;;;0.40;0.20;;;11.20;99.90;;;;;;5030589;28;20840;-74
2021/09/01 04:03:11;;;;;;;0.40;0.20;;;11.30;99.90;;;;;;5031108;28;20375;-75
2021/09/01 04:05:37;;;;;;;0.40;0.20;;;11.30;99.90;;;;;;5030939;28;20383;-74
2021/09/01 04:08:03;;;;;;;0.40;0.20;;;11.10;99.90;;;;;;5029505;28;20387;-75
2021/09/01 04:10:29;;;;;;;0.40;0.20;;;11.20;99.90;;;;;;5030813;28;20716;-75
2021/09/01 04:12:54;;;;;;;0.40;0.20;;;11.30;99.90;;;;;;5030030;28;20390;-74
2021/09/01 04:15:20;;;;;;;0.40;0.20;;;11.20;99.90;;;;;;5030967;28;20864;-75
2021/09/01 04:17:45;;;;;;;0.40;0.20;;;11.20;99.90;;;;;;5030014;28;20448;-74
2021/09/01 04:20:11;;;;;;;0.40;0.20;;;11.20;99.90;;;;;;5030876;28;20387;-74
2021/09/01 04:22:37;;;;;;;0.40;0.20;;;11.30;99.90;;;;;;5030779;28;20819;-74
2021/09/01 04:25:04;;;;;;;0.40;0.20;;;11.20;99.90;;;;;;5029808;28;20398;-75
2021/09/01 04:27:30;;;;;;;0.40;0.20;;;11.30;99.90;;;;;;5030610;28;20391;-75
2021/09/01 04:29:55;;;;;;;0.40;0.20;;;11.20;99.90;;;;;;5029881;28;20394;-75
2021/09/01 04:32:21;;;;;;;0.40;0.20;;;11.20;99.90;;;;;;5030492;28;20414;-75
2021/09/01 04:34:47;;;;;;;0.40;0.20;;;11.30;99.90;;;;;;5029741;28;20713;-75
2021/09/01 04:37:13;;;;;;;0.40;0.20;;;11.20;99.90;;;;;;5030690;28;20923;-75
2021/09/01 04:39:39;;;;;;;0.40;0.20;;;11.20;99.90;;;;;;5030534;28;20812;-76
2021/09/01 04:42:04;;;;;;;0.40;0.20;;;11.20;99.90;;;;;;5031206;28;20382;-76
2021/09/01 04:44:30;;;;;;;0.40;0.20;;;11.20;99.90;;;;;;5016553;28;20406;-75
2021/09/01 04:46:56;;;;;;;0.40;0.20;;;11.20;99.90;;;;;;5033755;28;20433;-75
2021/09/01 04:49:22;;;;;;;0.40;0.30;;;11.20;99.90;;;;;;5034592;28;20863;-75
2021/09/01 04:51:47;;;;;;;0.40;0.20;;;11.30;99.90;;;;;;5033522;28;20371;-74
2021/09/01 04:54:13;;;;;;;0.40;0.20;;;11.30;99.90;;;;;;5034708;28;20444;-75
2021/09/01 04:56:39;;;;;;;0.40;0.20;;;11.30;99.90;;;;;;5034121;28;20882;-76
2021/09/01 04:59:04;;;;;;;0.40;0.20;;;11.30;99.90;;;;;;5033543;28;20446;-74
2021/09/01 05:01:30;;;;;;;0.40;0.20;;;11.20;99.90;;;;;;5034951;28;20481;-76
2021/09/01 05:03:56;;;;;;;0.40;0.20;;;11.20;99.90;;;;;;5024369;28;20391;-74
2021/09/01 05:06:26;;;;;;;0.40;0.20;;;11.30;99.90;;;;;;5023062;28;20395;-75
2021/09/01 05:08:53;;;;;;;0.40;0.20;;;11.30;99.90;;;;;;5020361;28;20529;-74
2021/09/01 05:11:19;;;;;;;0.40;0.20;;;11.50;99.90;;;;;;5020601;28;20891;-75
2021/09/01 05:13:46;;;;;;;0.40;0.20;;;11.60;99.90;;;;;;5018260;28;20414;-75
2021/09/01 05:16:12;;;;;;;0.40;0.20;;;11.60;99.90;;;;;;5020163;28;20994;-75
2021/09/01 05:18:38;;;;;;;0.40;0.20;;;11.60;99.90;;;;;;5019796;28;20565;-74
2021/09/01 05:21:05;;;;;;;0.40;0.20;;;11.70;99.90;;;;;;5023922;28;20474;-74
2021/09/01 05:23:35;;;;;;;0.40;0.20;;;11.70;99.90;;;;;;5008280;28;20423;-74
2021/09/01 05:26:05;;;;;;;0.40;0.20;;;11.80;99.90;;;;;;5017733;28;20479;-74
2021/09/01 05:28:34;;;;;;;0.40;0.20;;;11.80;99.90;;;;;;5020385;28;20398;-74
2021/09/01 05:31:03;;;;;;;0.40;0.20;;;11.80;99.90;;;;;;5019144;28;20391;-74
2021/09/01 05:33:31;;;;;;;0.40;0.20;;;11.90;99.90;;;;;;5017224;28;20445;-74
2021/09/01 05:35:58;;;;;;;0.40;0.20;;;11.90;99.90;;;;;;5019414;28;20490;-74
2021/09/01 05:38:24;;;;;;;0.40;0.20;;;12.10;99.90;;;;;;5019691;28;20465;-73
2021/09/01 05:40:51;;;;;;;0.40;0.20;;;12.00;99.90;;;;;;5019802;28;20482;-74
2021/09/01 05:43:19;;;;;;;0.40;0.20;;;12.10;99.90;;;;;;5017995;28;20391;-74
2021/09/01 05:45:46;;;;;;;0.40;0.30;;;12.00;99.90;;;;;;5019351;28;20400;-75
2021/09/01 05:48:12;;;;;;;0.40;0.20;;;12.10;99.90;;;;;;5019039;28;20437;-74
2021/09/01 05:50:42;;;;;;;0.40;0.20;;;12.10;99.90;;;;;;5020448;28;20395;-74
2021/09/01 05:53:10;;;;;;;0.40;0.20;;;12.20;99.90;;;;;;5017456;28;20375;-74
2021/09/01 05:55:42;;;;;;;0.40;0.20;;;12.10;99.90;;;;;;5029719;28;20395;-74
2021/09/01 05:58:18;;;;;;;0.40;0.20;;;12.20;99.90;;;;;;5032428;28;20449;-74
2021/09/01 06:00:44;;;;;;;0.40;0.20;;;12.20;99.90;;;;;;5029118;28;20506;-75
2021/09/01 06:03:24;;;;;;;0.40;0.20;;;12.30;99.90;;;;;;5031487;28;20581;-74
2021/09/01 06:05:55;;;;;;;0.40;0.20;;;12.30;99.90;;;;;;5031105;28;20391;-75
2021/09/01 06:08:30;;;;;;;0.40;0.20;;;12.30;99.90;;;;;;5031221;28;20914;-75
2021/09/01 06:10:58;;;;;;;0.40;0.20;;;12.50;99.90;;;;;;5031465;28;20390;-75
2021/09/01 06:13:24;;;;;;;0.40;0.20;;;12.40;99.90;;;;;;5032289;28;20390;-75
2021/09/01 06:15:50;;;;;;;0.40;0.20;;;12.40;99.90;;;;;;5031767;28;20386;-75
2021/09/01 06:18:16;;;;;;;0.40;0.20;;;12.50;99.90;;;;;;5032200;28;20432;-75
2021/09/01 06:20:43;;;;;;;0.40;0.20;;;12.60;99.90;;;;;;5032609;28;20379;-75
2021/09/01 06:23:09;;;;;;;0.40;0.20;;;12.60;99.90;;;;;;5029218;28;20486;-75
2021/09/01 06:25:35;;;;;;;0.40;0.20;;;12.70;99.90;;;;;;5014171;28;20898;-75
2021/09/01 06:28:01;;;;;;;0.40;0.20;;;12.70;99.90;;;;;;5029459;28;20414;-76
2021/09/01 06:30:27;;;;;;;0.40;0.20;;;12.90;99.90;;;;;;5031072;28;20395;-75
2021/09/01 06:32:53;;;;;;;0.40;0.20;;;13.00;99.90;;;;;;5031683;28;20856;-76
2021/09/01 06:35:21;;;;;;;0.40;0.20;;;13.00;99.90;;;;;;5033009;28;20384;-74
2021/09/01 06:37:49;;;;;;;0.60;0.50;;;13.10;99.90;;;;;;5032217;28;20391;-75
2021/09/01 06:40:16;;;;;;;0.40;0.20;;;13.10;99.90;;;;;;5032285;28;20390;-75
2021/09/01 06:42:42;;;;;;;0.40;0.20;;;13.20;99.90;;;;;;5033012;28;20387;-75
2021/09/01 06:45:10;;;;;;;0.40;0.20;;;13.20;99.90;;;;;;5032190;28;20405;-75
2021/09/01 06:47:43;;;;;;;0.40;0.20;;;13.30;99.90;;;;;;5032696;28;20404;-75
2021/09/01 06:50:11;;;;;;;0.40;0.20;;;13.40;99.90;;;;;;5023241;28;20403;-75
2021/09/01 06:52:39;;;;;;;0.40;0.20;;;13.40;99.90;;;;;;5019434;28;20527;-75
2021/09/01 06:55:05;;;;;;;0.40;0.20;;;13.50;99.90;;;;;;5028683;28;20375;-75
2021/09/01 06:57:31;;;;;;;0.40;0.30;;;13.60;99.90;;;;;;5028338;28;20379;-75
2021/09/01 06:59:56;;;;;;;0.40;0.20;;;13.60;99.90;;;;;;5029306;28;21285;-75
2021/09/01 07:02:22;;;;;;;0.40;0.20;;;13.60;99.90;;;;;;5028129;28;20394;-75
2021/09/01 07:04:48;;;;;;;0.40;0.20;;;13.70;99.90;;;;;;5027390;28;20852;-76
2021/09/01 07:07:13;;;;;;;0.40;0.20;;;13.80;99.90;;;;;;5009529;28;20407;-75
2021/09/01 07:09:39;;;;;;;0.40;0.20;;;13.80;99.90;;;;;;5029583;28;20477;-75
2021/09/01 07:12:05;;;;;;;0.40;0.20;;;13.80;99.90;;;;;;5028009;28;21048;-75
2021/09/01 07:14:30;;;;;;;0.40;0.30;;;13.90;99.90;;;;;;5029438;28;20403;-75
2021/09/01 07:16:56;;;;;;;0.40;0.20;;;14.00;99.90;;;;;;5026343;28;20400;-76
2021/09/01 07:19:21;;;;;;;0.40;0.20;;;14.00;99.90;;;;;;5027778;28;20495;-75
2021/09/01 07:21:47;;;;;;;0.40;0.20;;;14.20;99.90;;;;;;5028670;28;20461;-75
2021/09/01 07:24:13;;;;;;;0.40;0.20;;;14.20;99.90;;;;;;5030130;28;20410;-74
2021/09/01 07:26:38;;;;;;;0.40;0.20;;;14.30;99.90;;;;;;5029112;28;20388;-74
2021/09/01 07:29:04;;;;;;;0.40;0.40;;;14.50;99.90;;;;;;5028913;28;20394;-75
2021/09/01 07:31:31;;;;;;;0.40;0.20;;;14.80;99.90;;;;;;5028986;28;20463;-76
2021/09/01 07:33:57;;;;;;;0.40;0.20;;;15.00;99.90;;;;;;5024881;28;20771;-75
2021/09/01 07:36:23;;;;;;;0.40;0.22;;;15.00;99.90;;;;;;5028958;28;20397;-73
2021/09/01 07:38:49;;;;;;;0.40;0.20;;;15.10;99.90;;;;;;5011588;28;20776;-74
2021/09/01 07:41:15;;;;;;;0.40;0.20;;;15.10;99.90;;;;;;5028709;28;20394;-74
2021/09/01 07:43:41;;;;;;;0.40;0.20;;;15.20;99.90;;;;;;5028718;28;20434;-74
2021/09/01 07:46:08;;;;;;;0.40;0.30;;;15.20;99.90;;;;;;5028463;28;20391;-74
2021/09/01 07:48:34;;;;;;;0.40;0.30;;;15.30;99.90;;;;;;5029096;28;20410;-74
2021/09/01 07:50:59;;;;;;;0.40;0.30;;;15.20;99.90;;;;;;5028393;28;20387;-75
2021/09/01 07:53:25;;;;;;;0.40;0.20;;;15.40;99.90;;;;;;5029556;28;20394;-75
2021/09/01 07:55:51;;;;;;;0.40;0.30;;;15.50;99.90;;;;;;5028449;28;20752;-75
2021/09/01 07:58:16;;;;;;;0.40;0.20;;;15.50;99.90;;;;;;5028481;28;20575;-75
2021/09/01 08:00:42;;;;;;;0.40;0.30;;;15.60;99.90;;;;;;5029195;28;20410;-75
2021/09/01 08:03:08;;;;;;;0.40;0.20;;;15.60;99.90;;;;;;5027933;28;20386;-74
2021/09/01 08:05:33;;;;;;;0.40;0.20;;;15.70;99.90;;;;;;5028557;28;20384;-75
2021/09/01 08:07:59;;;;;;;0.40;0.20;;;15.80;99.90;;;;;;5027916;28;20387;-74
2021/09/01 08:10:25;;;;;;;0.40;0.20;;;15.80;99.90;;;;;;5028904;28;20454;-73
2021/09/01 08:12:50;;;;;;;0.40;0.20;;;15.70;99.90;;;;;;5028726;28;21711;-73
2021/09/01 08:15:16;;;;;;;0.40;0.20;;;15.70;99.90;;;;;;5028678;28;20426;-73
2021/09/01 08:17:42;;;;;;;0.40;0.20;;;15.80;99.90;;;;;;5028551;28;20482;-73
2021/09/01 08:20:08;;;;;;;0.40;0.30;;;15.90;99.90;;;;;;5027893;28;20466;-73
2021/09/01 08:22:33;;;;;;;0.40;0.25;;;15.90;99.90;;;;;;5028733;28;20415;-75
2021/09/01 08:25:01;;;;;;;0.40;0.30;;;15.90;99.90;;;;;;5035777;28;20435;-75
2021/09/01 08:27:27;;;;;;;0.40;0.30;;;16.00;99.90;;;;;;5028547;28;20787;-75
2021/09/01 08:29:53;;;;;;;0.40;0.20;;;16.20;99.90;;;;;;5028248;28;20387;-75
2021/09/01 08:32:18;;;;;;;0.40;0.30;;;16.20;99.90;;;;;;5027378;28;20383;-75
2021/09/01 08:34:45;;;;;;;0.40;0.20;;;16.40;99.90;;;;;;5028631;28;20386;-75
2021/09/01 08:37:11;;;;;;;0.40;0.20;;;16.50;99.90;;;;;;5027576;28;21403;-74
2021/09/01 08:39:37;;;;;;;0.40;0.20;;;16.50;99.90;;;;;;5028356;28;20834;-74
2021/09/01 08:42:03;;;;;;;0.40;0.20;;;16.50;99.90;;;;;;5027625;28;20391;-75
2021/09/01 08:44:29;;;;;;;0.40;0.20;;;16.60;99.90;;;;;;5028405;28;20494;-75
2021/09/01 08:46:57;;;;;;;0.40;0.30;;;16.60;99.90;;;;;;5028377;28;20467;-73
2021/09/01 08:49:29;;;;;;;0.40;0.20;;;16.50;99.90;;;;;;5029568;28;20472;-74
2021/09/01 08:51:55;;;;;;;0.40;0.20;;;16.60;99.90;;;;;;5030323;28;20440;-74
2021/09/01 08:54:21;;;;;;;0.40;0.20;;;16.60;99.90;;;;;;5029601;28;20418;-74
2021/09/01 08:56:47;;;;;;;0.40;0.20;;;16.70;99.90;;;;;;5030612;28;20390;-73
2021/09/01 08:59:13;;;;;;;0.40;0.20;;;16.60;99.90;;;;;;5029716;28;20426;-74
2021/09/01 09:01:47;;;;;;;0.40;0.20;;;16.60;99.90;;;;;;5029412;28;20395;-74
2021/09/01 09:04:18;;;;;;;0.40;0.20;;;16.60;99.90;;;;;;5029807;28;20456;-74
2021/09/01 09:06:45;;;;;;;0.40;0.20;;;16.70;99.90;;;;;;5030448;28;20401;-74
2021/09/01 09:09:15;;;;;;;0.40;0.20;;;16.60;99.90;;;;;;5029606;28;20394;-74
2021/09/01 09:11:42;;;;;;;0.40;0.20;;;16.70;99.90;;;;;;5030440;28;20502;-73
2021/09/01 09:14:22;;;;;;;0.40;0.20;;;17.00;99.90;;;;;;5029615;28;20541;-75
2021/09/01 09:16:59;;;;;;;0.40;0.20;;;16.90;99.90;;;;;;5030618;28;20395;-74
2021/09/01 09:19:44;;;;;;;0.40;0.20;;;17.20;99.90;;;;;;5029710;28;20411;-74
2021/09/01 09:22:12;;;;;;;0.40;0.20;;;17.10;99.90;;;;;;5029734;28;20485;-75
2021/09/01 09:24:37;;;;;;;0.40;0.20;;;17.10;99.90;;;;;;5030279;28;20736;-75
2021/09/01 09:27:05;;;;;;;0.40;0.20;;;17.20;99.90;;;;;;5029770;28;20382;-75
2021/09/01 09:29:31;;;;;;;0.40;0.20;;;17.40;99.90;;;;;;5033571;28;20528;-75
2021/09/01 09:32:10;;;;;;;0.40;0.20;;;17.30;99.90;;;;;;5033829;28;20470;-74
2021/09/01 09:34:43;;;;;;;0.40;0.30;;;17.40;99.90;;;;;;5034005;28;20390;-74
2021/09/01 09:37:15;;;;;;;0.40;0.20;;;17.60;99.90;;;;;;5029993;28;20852;-74
2021/09/01 09:39:45;;;;;;;0.40;0.20;;;17.60;99.90;;;;;;5033177;28;20423;-74
2021/09/01 09:42:12;;;;;;;0.40;0.20;;;17.80;99.90;;;;;;5032822;28;20391;-74
2021/09/01 09:44:37;;;;;;;0.40;0.20;;;17.70;99.90;;;;;;5033335;28;20760;-74
2021/09/01 09:47:03;;;;;;;0.40;0.30;;;17.80;99.90;;;;;;5032989;28;20510;-76
2021/09/01 09:49:31;;;;;;;0.40;0.20;;;17.80;99.90;;;;;;5033221;28;20874;-75
2021/09/01 09:51:57;;;;;;;0.50;0.50;;;17.90;99.90;;;;;;5033498;28;20505;-73
2021/09/01 09:54:25;;;;;;;0.40;0.20;;;18.00;99.90;;;;;;5032159;28;20851;-74
2021/09/01 09:57:06;;;;;;;0.40;0.20;;;18.00;99.90;;;;;;5032938;28;20474;-76
2021/09/01 09:59:33;;;;;;;0.40;0.20;;;18.00;99.90;;;;;;5031424;28;20426;-78
2021/09/01 10:01:58;;;;;;;0.40;0.20;;;18.10;99.90;;;;;;5033418;28;20382;-77
2021/09/01 10:04:28;;;;;;;0.40;0.20;;;18.30;99.90;;;;;;5032803;28;20391;-78
2021/09/01 10:06:54;;;;;;;0.40;0.20;;;18.30;99.90;;;;;;5033236;28;20403;-77
2021/09/01 10:09:20;;;;;;;0.40;0.20;;;18.50;99.90;;;;;;5032924;28;20751;-77
2021/09/01 10:11:50;;;;;;;0.40;0.20;;;18.60;99.90;;;;;;5033525;28;20433;-77
2021/09/01 10:14:19;;;;;;;0.40;0.20;;;18.60;99.90;;;;;;5032651;28;20387;-78
2021/09/01 10:16:55;;;;;;;0.40;0.30;;;18.70;99.90;;;;;;5033241;28;20394;-77
2021/09/01 10:19:27;;;;;;;0.40;0.20;;;18.70;99.90;;;;;;5032024;28;20930;-76
2021/09/01 10:22:03;;;;;;;0.40;0.30;;;18.80;99.90;;;;;;5032668;28;20747;-76
2021/09/01 10:24:42;;;;;;;0.90;0.80;;;18.90;99.90;;;;;;5032945;28;20847;-77
2021/09/01 10:27:21;;;;;;;0.40;0.20;;;18.90;99.90;;;;;;5032758;28;20379;-77
2021/09/01 10:30:07;;;;;;;0.40;0.20;;;19.20;99.90;;;;;;5033159;28;20898;-77
2021/09/01 10:32:42;;;;;;;0.40;0.20;;;19.40;99.90;;;;;;5033329;28;20741;-76
2021/09/01 10:35:15;;;;;;;0.40;0.20;;;19.20;99.90;;;;;;5032472;28;20425;-75
2021/09/01 10:37:45;;;;;;;0.40;0.20;;;19.10;99.90;;;;;;5031636;28;20473;-77
2021/09/01 10:40:33;;;;;;;0.40;0.22;;;19.20;99.90;;;;;;5032162;28;20383;-75
2021/09/01 10:43:00;;;;;;;0.40;0.20;;;19.40;99.90;;;;;;5032128;28;20379;-77
2021/09/01 10:45:32;;;;;;;0.40;0.20;;;19.40;99.90;;;;;;5032461;28;20391;-76
2021/09/01 10:48:07;;;;;;;0.40;0.20;;;19.60;99.90;;;;;;5032839;28;20432;-77
2021/09/01 10:50:36;;;;;;;0.40;0.20;;;19.70;99.90;;;;;;5032420;28;20406;-76
2021/09/01 10:53:19;;;;;;;0.40;0.20;;;19.80;99.90;;;;;;5032732;28;20384;-77
2021/09/01 10:55:59;;;;;;;0.40;0.20;;;19.90;99.90;;;;;;5032602;28;20455;-78
2021/09/01 10:58:38;;;;;;;0.40;0.20;;;20.00;99.90;;;;;;5031637;28;20995;-77
2021/09/01 11:01:19;;;;;;;0.40;0.20;;;20.00;99.90;;;;;;5032514;28;20415;-77
2021/09/01 11:03:52;;;;;;;0.40;0.20;;;20.20;99.90;;;;;;5032728;28;20748;-77
2021/09/01 11:06:19;;;;;;;0.40;0.20;;;20.50;99.90;;;;;;5032133;28;20438;-77
2021/09/01 11:08:58;;;;;;;0.40;0.30;;;20.50;99.90;;;;;;5032340;28;20395;-77
2021/09/01 11:11:54;;;;;;;0.40;0.20;;;20.80;99.90;;;;;;5031744;28;20379;-77
2021/09/01 11:14:38;;;;;;;0.40;0.20;;;21.00;99.90;;;;;;5031598;28;20397;-77
2021/09/01 11:17:09;;;;;;;0.40;0.30;;;21.30;99.90;;;;;;5032038;28;20426;-76
2021/09/01 11:19:35;;;;;;;0.40;0.30;;;21.60;99.90;;;;;;5032136;28;20513;-77
2021/09/01 11:22:09;;;;;;;0.40;0.20;;;21.60;99.90;;;;;;5031664;28;20895;-77
2021/09/01 11:24:49;;;;;;;0.40;0.30;;;21.60;99.90;;;;;;5029087;28;20403;-76
2021/09/01 11:27:17;;;;;;;0.40;0.30;;;21.80;97.50;;;;;;5029680;28;20391;-76
2021/09/01 11:29:43;;;;;;;0.40;0.30;;;22.00;97.70;;;;;;5030439;28;20391;-76
2021/09/01 11:32:17;;;;;;;0.40;0.20;;;21.70;95.10;;;;;;5031065;28;20459;-73
2021/09/01 11:34:43;;;;;;;0.40;0.20;;;22.40;98.70;;;;;;5031625;28;20378;-74
2021/09/01 11:37:08;;;;;;;0.40;0.30;;;23.00;97.20;;;;;;5031081;28;20380;-74
2021/09/01 11:39:48;;;;;;;0.40;0.20;;;23.40;97.10;;;;;;5031523;28;20447;-75
2021/09/01 11:42:14;;;;;;;0.40;0.30;;;23.60;95.50;;;;;;4999727;28;20399;-74
2021/09/01 11:44:40;;;;;;;0.40;0.20;;;23.90;92.70;;;;;;5029196;28;20407;-75
2021/09/01 11:47:15;;;;;;;0.40;0.30;;;24.40;92.70;;;;;;5031506;28;20379;-76
2021/09/01 11:49:42;;;;;;;0.40;0.30;;;24.60;90.10;;;;;;5031474;28;20778;-75
2021/09/01 11:52:07;;;;;;;0.40;0.30;;;24.70;82.30;;;;;;5029986;28;20387;-74
2021/09/01 11:54:39;;;;;;;0.40;0.20;;;24.70;80.50;;;;;;5031258;28;20449;-75
2021/09/01 11:57:05;;;;;;;0.40;0.20;;;24.90;82.90;;;;;;5031190;28;20433;-76
2021/09/01 11:59:31;;;;;;;0.40;0.20;;;25.00;81.40;;;;;;5030636;28;20450;-75
2021/09/01 12:01:59;;;;;;;0.40;0.30;;;25.50;78.40;;;;;;5031034;28;20457;-74
2021/09/01 12:04:25;;;;;;;0.40;0.20;;;25.70;75.30;;;;;;5030713;28;20405;-75
2021/09/01 12:06:56;;;;;;;0.40;0.20;;;26.00;75.40;;;;;;5029486;28;20764;-74
2021/09/01 12:09:25;;;;;;;0.40;0.30;;;26.20;73.40;;;;;;5010907;28;20395;-74
2021/09/01 12:11:59;;;;;;;0.40;0.30;;;26.10;70.90;;;;;;5018928;28;20379;-74
2021/09/01 12:14:32;;;;;;;0.40;0.20;;;25.70;75.50;;;;;;5030573;28;20796;-75
2021/09/01 12:17:19;;;;;;;0.40;0.20;;;26.00;74.10;;;;;;5031140;28;20474;-74
2021/09/01 12:19:49;;;;;;;0.40;0.20;;;26.00;72.60;;;;;;5030641;28;20763;-75
2021/09/01 12:22:35;;;;;;;0.40;0.30;;;25.80;70.00;;;;;;5030264;28;20411;-75
2021/09/01 12:25:05;;;;;;;0.40;0.20;;;25.70;69.40;;;;;;5030916;28;20391;-74
2021/09/01 12:27:31;;;;;;;0.40;0.30;;;26.00;67.50;;;;;;5030435;28;20384;-75
2021/09/01 12:29:57;;;;;;;0.40;0.30;;;25.80;70.90;;;;;;5031006;28;20802;-76
2021/09/01 12:32:23;;;;;;;0.40;0.20;;;25.60;70.40;;;;;;5030417;28;20385;-75
2021/09/01 12:34:55;;;;;;;0.40;0.20;;;25.40;76.00;;;;;;5030796;28;20724;-74
2021/09/01 12:37:36;;;;;;;0.40;0.20;;;25.50;73.00;;;;;;5030369;28;20375;-74
2021/09/01 12:40:07;;;;;;;0.40;0.30;;;25.30;74.50;;;;;;5030702;28;20414;-75
2021/09/01 12:42:43;;;;;;;0.40;0.20;;;25.40;71.40;;;;;;5029828;28;20432;-75
2021/09/01 12:45:17;;;;;;;0.40;0.28;;;25.10;73.30;;;;;;5030064;28;20885;-75
2021/09/01 12:47:58;;;;;;;0.40;0.20;;;25.20;72.20;;;;;;5030886;28;20740;-75
2021/09/01 12:50:42;;;;;;;0.40;0.20;;;25.50;71.70;;;;;;5030136;28;20792;-76
2021/09/01 12:53:10;;;;;;;0.40;0.20;;;25.30;70.80;;;;;;5030307;28;20387;-73
2021/09/01 12:55:45;;;;;;;0.40;0.30;;;25.70;69.60;;;;;;5030493;28;20403;-74